Flight EZE40S

  • Submitted By: Dave Hardy
  • Departure Airport: Aberdeen / Dyce (EGPD)
  • Arrival Airport: Stavanger / Sola (ENZV)
  • Aircraft: SB20 (G-CDEA)
  • Flight Time: 01.10
  • Date Submitted: 02/12/2009
  • Status: Accepted
Flight Details
Gross Revenue:
(40 load / £ 0.00 per unit
£ 0.00
Fuel Cost:
(2813 fuel used @ 0 / unit)
£ 0.00

Flight Details

  • VATAWARE Link: -

Additional Log Information:

View Log

[2009/02/12 06:41:00]
Flight IATA:EZE40S
Pilot Number:EZE0001
Company ICAO:EZE
Aircraft Type:SB20
PAX:40
Aircraft Registration:SB20
Departing Airport: EGPD
Destination Airport: ENZV
Online: VATSIM
Route:ADN UP600 KLONN
Flight Level:27000
06:41 Zero fuel Weight: 39784 Lbs, Fuel Weight: 10165 Lbs
06:41 VATSIM:EGPD 120950Z 19006KT 4000 -SN FEW010 BKN014 01/M00 Q1020 RESN 1629//95 TEMPO 2000 SN BKN007
06:41 VATSIM:ENZV 120950Z 19001KT 9999 SCT015 BKN045 M03/M05 Q1016 TEMPO 1500 SHSN VV008
06:44 Parking Brakes off
06:44 Com1 Freq=122.80
06:59 VR= 161 Knots
06:59 V2= 168 Knots
06:59 Take-off
06:59 Take off Weight: 49591 Lbs
06:59 Wind: 197 @ 005 Knots Heading: 158
06:59 POS N57 11 54 W002 11 42
06:59 N11 125 N12 125
06:59 Gear Up: 172 Knots
06:59 Flaps: at 172 Knots
07:05 Flaps:Up at 229 Knots
07:12 TOC
07:12 Fuel Weight: 8896 Lb
07:14 Wind:333@089 Knots Heading: 048 Ground Speed: 406 Knots Altitude 27158 ft
07:29 Wind:331@086 Knots Heading: 028 Ground Speed: 366 Knots Altitude 26866 ft
07:29 TOD
07:29 Fuel Weight: 8051 Lb
07:44 Wind:322@017 Knots Heading: 060 Ground Speed: 256 Knots Altitude 5600 ft
07:47 Flaps: at 227 Knots
07:48 Flaps: at 194 Knots
07:48 Gear Down: 170 Knots
07:50 Flaps: at 141 Knots
07:53 TouchDown:Rate -81 ft/min Speed: 130 Knots
07:53 VATSIM:ENZV 121120Z VRB02KT 9999 FEW016 SCT050 M01/M05 Q1016 TEMPO 1500 SHSN VV008
07:53 Land
07:53 Wind:193@001 Knots
07:53 Heading: 179
07:53 Flight Duration: 00:54
07:53 Landing Weight: 47159 Lbs
07:53 POS N58 52 45 E005 38 16
07:54 Parking brakes on
07:54 Block to Block Duration: 01:10
07:54 Final Fuel: 7352 Lbls
07:54 Spent Fuel: 2813 Lbls
07:54 Flight Length: 288 NM
07:54 TOD Land Length: 109 NM
06:36 UTC Jump: added 1 Hour to Log

Route Map